createdAt,value
2018-03-15T00:00:54.405Z,85.90
2018-03-15T00:07:07.743Z,86.20
2018-03-15T00:10:11.296Z,86.00
2018-03-15T00:13:14.949Z,87.10
2018-03-15T00:16:18.382Z,87.00
2018-03-15T00:19:22.042Z,87.00
2018-03-15T00:22:25.517Z,87.90
2018-03-15T00:25:29.214Z,87.90
2018-03-15T00:28:32.767Z,87.60
2018-03-15T00:31:36.192Z,88.00
2018-03-15T00:34:39.582Z,88.40
2018-03-15T00:37:43.154Z,87.90
2018-03-15T00:40:46.920Z,88.20
2018-03-15T00:43:50.472Z,87.40
2018-03-15T00:46:54.105Z,87.50
2018-03-15T00:49:57.870Z,88.30
2018-03-15T00:53:01.415Z,88.20
2018-03-15T00:56:04.897Z,87.90
2018-03-15T00:59:10.143Z,88.30
2018-03-15T01:02:15.644Z,88.40
2018-03-15T01:05:19.210Z,88.50
2018-03-15T01:08:22.728Z,88.70
2018-03-15T01:11:27.012Z,89.80
2018-03-15T01:14:30.726Z,88.90
2018-03-15T01:17:37.485Z,88.70
2018-03-15T01:20:44.894Z,89.00
2018-03-15T01:23:48.446Z,89.00
2018-03-15T01:26:51.938Z,89.10
2018-03-15T01:29:55.471Z,89.10
2018-03-15T01:32:59.761Z,89.90
2018-03-15T01:36:03.234Z,89.50
2018-03-15T01:39:06.743Z,89.50
2018-03-15T01:42:10.370Z,89.40
2018-03-15T01:45:14.764Z,90.10
2018-03-15T01:48:18.249Z,89.80
2018-03-15T01:51:21.764Z,89.80
2018-03-15T01:54:25.181Z,90.00
2018-03-15T01:57:28.716Z,90.00
2018-03-15T02:00:32.134Z,90.10
2018-03-15T02:03:35.605Z,90.20
2018-03-15T02:06:39.871Z,90.80
2018-03-15T02:09:43.423Z,90.40
2018-03-15T02:12:46.884Z,90.10
2018-03-15T02:15:50.434Z,90.10
2018-03-15T02:18:53.912Z,90.20
2018-03-15T02:21:57.455Z,90.30
2018-03-15T02:25:00.948Z,90.20
2018-03-15T02:28:04.360Z,90.20
2018-03-15T02:31:07.921Z,90.50
2018-03-15T02:34:11.345Z,90.40
2018-03-15T02:37:14.830Z,90.20
2018-03-15T02:40:18.291Z,90.20
2018-03-15T02:43:22.498Z,90.70
2018-03-15T02:46:26.040Z,90.40
2018-03-15T02:49:29.665Z,90.60
2018-03-15T02:52:33.221Z,90.60
2018-03-15T02:55:36.715Z,90.60
2018-03-15T02:58:40.153Z,90.70
2018-03-15T03:01:43.676Z,90.60
2018-03-15T03:04:47.160Z,90.60
2018-03-15T03:07:50.558Z,90.70
2018-03-15T03:10:54.145Z,90.70
2018-03-15T03:13:57.848Z,90.80
2018-03-15T03:17:01.448Z,90.90
2018-03-15T03:20:04.958Z,91.20
2018-03-15T03:23:09.050Z,91.10
2018-03-15T03:26:12.582Z,91.00
2018-03-15T03:29:17.290Z,90.80
2018-03-15T03:32:20.833Z,90.90
2018-03-15T03:35:24.402Z,90.80
2018-03-15T03:38:27.914Z,90.60
2018-03-15T03:41:31.550Z,90.50
2018-03-15T03:44:35.078Z,90.60
2018-03-15T03:47:38.819Z,90.50
2018-03-15T03:50:42.301Z,90.60
2018-03-15T03:53:45.749Z,90.50
2018-03-15T03:56:50.440Z,90.80
2018-03-15T03:59:53.910Z,90.50
2018-03-15T04:02:58.140Z,90.70
2018-03-15T04:06:01.577Z,90.50
2018-03-15T04:09:04.976Z,90.60
2018-03-15T04:12:08.575Z,90.60
2018-03-15T04:15:12.231Z,90.50
2018-03-15T04:18:15.690Z,90.70
2018-03-15T04:21:22.098Z,90.60
2018-03-15T04:24:25.620Z,90.50
2018-03-15T04:27:29.143Z,90.50
2018-03-15T04:30:32.638Z,90.50
2018-03-15T04:33:36.263Z,90.60
2018-03-15T04:36:39.693Z,90.80
2018-03-15T04:39:43.930Z,91.10
2018-03-15T04:42:47.469Z,90.90
2018-03-15T04:45:51.916Z,91.20
2018-03-15T04:48:55.499Z,90.90
2018-03-15T04:51:58.914Z,90.90
2018-03-15T04:55:02.425Z,90.90
2018-03-15T04:58:06.779Z,91.40
2018-03-15T05:01:10.240Z,91.10
2018-03-15T05:04:13.689Z,90.90
2018-03-15T05:07:17.246Z,90.70
2018-03-15T05:10:20.748Z,90.70
2018-03-15T05:13:24.174Z,90.70
2018-03-15T05:16:27.615Z,90.60
2018-03-15T05:19:31.101Z,90.40
2018-03-15T05:22:34.787Z,90.20
2018-03-15T05:25:39.101Z,90.20
2018-03-15T05:28:42.645Z,90.10
2018-03-15T05:31:46.363Z,89.80
2018-03-15T05:34:49.971Z,89.70
2018-03-15T05:37:54.463Z,89.80
2018-03-15T05:40:58.682Z,89.50
2018-03-15T05:44:02.954Z,89.20
2018-03-15T05:47:06.426Z,88.60
2018-03-15T05:50:09.976Z,88.70
2018-03-15T05:53:14.225Z,88.80
2018-03-15T05:56:18.449Z,88.70
2018-03-15T05:59:21.918Z,88.30
2018-03-15T06:02:25.365Z,87.90
2018-03-15T06:05:28.811Z,87.80
2018-03-15T06:08:32.247Z,87.90
2018-03-15T06:11:36.019Z,87.60
2018-03-15T06:14:39.558Z,87.50
2018-03-15T06:17:43.018Z,87.50
2018-03-15T06:20:46.477Z,87.60
2018-03-15T06:23:49.951Z,87.80
2018-03-15T06:26:53.458Z,87.70
2018-03-15T06:29:56.885Z,86.60
2018-03-15T06:33:00.387Z,86.40
2018-03-15T06:36:03.820Z,86.30
2018-03-15T06:39:07.305Z,86.70
2018-03-15T06:42:10.725Z,86.90
2018-03-15T06:45:14.207Z,86.20
2018-03-15T06:48:18.066Z,85.80
2018-03-15T06:51:21.590Z,84.70
2018-03-15T06:54:25.162Z,84.20
2018-03-15T06:57:28.670Z,83.80
2018-03-15T07:00:32.935Z,84.50
2018-03-15T07:03:36.649Z,84.40
2018-03-15T07:06:40.135Z,85.40
2018-03-15T07:09:43.664Z,85.20
2018-03-15T07:12:47.853Z,85.50
2018-03-15T07:15:51.665Z,85.30
2018-03-15T07:18:55.135Z,86.50
2018-03-15T07:21:58.691Z,85.60
2018-03-15T07:25:02.187Z,85.60
2018-03-15T07:28:05.689Z,85.70
2018-03-15T07:31:09.199Z,85.10
2018-03-15T07:34:12.690Z,85.00
2018-03-15T07:37:16.175Z,84.90
2018-03-15T07:40:19.716Z,85.10
2018-03-15T07:43:24.109Z,83.80
2018-03-15T07:46:27.620Z,83.20
2018-03-15T07:49:31.152Z,81.60
2018-03-15T07:52:35.577Z,80.70
2018-03-15T07:55:39.115Z,80.30
2018-03-15T07:58:42.639Z,79.80
2018-03-15T08:01:46.201Z,78.20
2018-03-15T08:04:49.779Z,77.20
2018-03-15T08:07:53.308Z,78.20
2018-03-15T08:10:56.879Z,79.90
2018-03-15T08:14:00.454Z,80.40
2018-03-15T08:17:04.362Z,80.70
2018-03-15T08:20:07.899Z,80.40
2018-03-15T08:23:11.430Z,79.80
2018-03-15T08:26:15.727Z,79.40
2018-03-15T08:29:20.108Z,79.60
2018-03-15T08:32:23.840Z,79.20
2018-03-15T08:35:28.217Z,77.60
2018-03-15T08:38:32.892Z,77.60
2018-03-15T08:41:38.027Z,77.30
2018-03-15T08:44:41.628Z,76.80
2018-03-15T08:47:46.076Z,76.10
2018-03-15T08:50:50.927Z,76.50
2018-03-15T08:53:54.601Z,76.00
2018-03-15T08:56:58.927Z,76.80
2018-03-15T09:03:12.878Z,76.00
2018-03-15T09:06:16.500Z,75.40
2018-03-15T09:09:21.186Z,74.70
2018-03-15T09:12:25.748Z,73.80
2018-03-15T09:15:29.460Z,72.30
2018-03-15T09:18:35.872Z,72.40
2018-03-15T09:21:40.446Z,70.80
2018-03-15T09:24:44.019Z,71.10
2018-03-15T09:27:48.397Z,69.80
2018-03-15T09:30:54.882Z,67.20
2018-03-15T09:33:58.713Z,66.30
2018-03-15T09:37:06.552Z,61.80
2018-03-15T09:40:11.676Z,57.00
2018-03-15T09:43:15.459Z,56.90
2018-03-15T09:46:20.508Z,52.20
2018-03-15T09:49:24.657Z,55.90
2018-03-15T09:52:33.388Z,57.30
2018-03-15T09:55:37.902Z,55.80
2018-03-15T09:58:41.828Z,52.80
2018-03-15T10:01:50.138Z,51.50
2018-03-15T10:04:57.235Z,53.70
2018-03-15T10:08:01.642Z,47.60
2018-03-15T10:11:06.298Z,47.80
2018-03-15T10:14:10.885Z,47.50
2018-03-15T10:17:16.764Z,52.20
2018-03-15T10:20:21.295Z,53.50
2018-03-15T10:23:25.071Z,52.70
2018-03-15T10:26:28.620Z,53.20
2018-03-15T10:29:33.272Z,54.80
2018-03-15T10:32:39.118Z,53.80
2018-03-15T10:35:43.794Z,53.30
2018-03-15T10:38:48.454Z,51.70
2018-03-15T10:41:53.288Z,52.40
2018-03-15T10:44:57.856Z,50.10
2018-03-15T10:48:02.490Z,49.70
2018-03-15T10:51:06.164Z,50.00
2018-03-15T10:54:09.954Z,50.50
2018-03-15T10:57:13.544Z,47.70
2018-03-15T11:00:17.048Z,49.20
2018-03-15T11:07:30.168Z,49.70
2018-03-15T11:14:46.861Z,51.80
2018-03-15T11:18:20.052Z,52.60
2018-03-15T12:19:10.816Z,60.70
2018-03-15T12:27:40.773Z,59.80
2018-03-15T12:50:22.840Z,58.40
2018-03-15T12:57:17.740Z,58.20
2018-03-15T13:00:23.997Z,58.10
2018-03-15T13:07:03.425Z,58.40
2018-03-15T13:13:48.886Z,59.30
2018-03-15T13:20:59.190Z,59.10
2018-03-15T13:30:53.784Z,59.50
2018-03-15T13:41:47.709Z,57.80
2018-03-15T13:44:51.272Z,58.60
2018-03-15T13:47:55.205Z,57.40
2018-03-15T13:51:06.892Z,58.30
2018-03-15T13:54:13.217Z,58.20
2018-03-15T13:57:32.244Z,57.90
2018-03-15T14:00:39.957Z,58.50
2018-03-15T14:03:57.021Z,58.70
2018-03-15T14:07:04.541Z,58.80
2018-03-15T15:11:20.638Z,55.50
2018-03-15T15:18:05.926Z,55.00
2018-03-15T15:22:03.530Z,54.50
2018-03-15T15:25:07.865Z,55.20
2018-03-15T15:28:12.646Z,54.90
2018-03-15T15:31:18.338Z,55.20
2018-03-15T15:34:22.078Z,56.00
2018-03-15T15:37:26.642Z,56.50
2018-03-15T15:40:30.924Z,57.20
2018-03-15T15:46:44.187Z,57.00
2018-03-15T15:49:47.712Z,57.30
2018-03-15T15:52:51.202Z,57.20
2018-03-15T15:55:54.623Z,57.20
2018-03-15T15:58:58.221Z,57.30
2018-03-15T16:02:01.800Z,57.50
2018-03-15T16:05:05.290Z,57.60
2018-03-15T16:08:08.624Z,57.70
2018-03-15T16:11:12.082Z,57.80
2018-03-15T16:14:15.450Z,58.10
2018-03-15T16:17:18.917Z,58.50
2018-03-15T16:20:22.391Z,58.90
2018-03-15T16:23:26.212Z,59.20
2018-03-15T16:26:29.670Z,59.30
2018-03-15T16:29:33.966Z,59.80
2018-03-15T16:32:37.480Z,59.50
2018-03-15T16:35:40.954Z,59.90
2018-03-15T16:38:44.475Z,59.60
2018-03-15T16:41:47.959Z,59.70
2018-03-15T16:44:51.524Z,60.10
2018-03-15T16:47:55.031Z,60.40
2018-03-15T16:50:58.870Z,60.90
2018-03-15T16:54:02.346Z,61.00
2018-03-15T16:57:05.776Z,61.00
2018-03-15T17:00:09.285Z,61.60
2018-03-15T17:03:12.675Z,62.10
2018-03-15T17:06:16.346Z,62.20
2018-03-15T17:09:19.742Z,62.60
2018-03-15T17:12:23.138Z,63.00
2018-03-15T17:15:26.616Z,63.00
2018-03-15T17:18:30.079Z,63.00
2018-03-15T17:21:33.518Z,63.20
2018-03-15T17:24:37.082Z,63.40
2018-03-15T17:27:40.574Z,63.60
2018-03-15T17:30:43.948Z,64.10
2018-03-15T17:33:47.377Z,64.40
2018-03-15T17:36:50.866Z,64.50
2018-03-15T17:39:54.729Z,64.60
2018-03-15T17:42:58.918Z,65.40
2018-03-15T17:46:02.287Z,65.00
2018-03-15T17:49:05.692Z,64.80
2018-03-15T17:52:09.198Z,64.80
2018-03-15T17:55:12.614Z,64.80
2018-03-15T17:58:16.054Z,65.20
2018-03-15T18:01:20.179Z,66.10
2018-03-15T18:04:23.691Z,65.90
2018-03-15T18:07:27.110Z,66.30
2018-03-15T18:10:30.661Z,66.70
2018-03-15T18:13:34.825Z,67.40
2018-03-15T18:16:38.358Z,67.10
2018-03-15T18:19:42.514Z,67.50
2018-03-15T18:22:45.955Z,67.10
2018-03-15T18:25:49.334Z,67.00
2018-03-15T18:28:52.887Z,67.60
2018-03-15T18:31:57.073Z,68.90
2018-03-15T18:35:00.588Z,68.60
2018-03-15T18:38:04.816Z,69.50
2018-03-15T18:41:08.396Z,68.90
2018-03-15T18:44:12.461Z,69.40
2018-03-15T18:47:16.708Z,70.30
2018-03-15T18:50:20.187Z,70.00
2018-03-15T18:53:24.429Z,70.50
2018-03-15T18:56:28.053Z,70.30
2018-03-15T18:59:31.527Z,70.30
2018-03-15T19:02:35.090Z,70.70
2018-03-15T19:05:38.573Z,70.50
2018-03-15T19:08:42.039Z,70.50
2018-03-15T19:11:45.534Z,70.60
2018-03-15T19:14:48.950Z,70.60
2018-03-15T19:17:52.393Z,70.40
2018-03-15T19:20:56.729Z,70.70
2018-03-15T19:24:00.095Z,70.50
2018-03-15T19:27:03.526Z,70.30
2018-03-15T19:30:07.785Z,70.10
2018-03-15T19:33:11.200Z,69.90
2018-03-15T19:36:14.687Z,70.00
2018-03-15T19:39:18.072Z,69.90
2018-03-15T19:42:21.493Z,70.40
2018-03-15T19:45:24.967Z,71.50
2018-03-15T19:48:28.342Z,72.50
2018-03-15T19:51:31.728Z,73.60
2018-03-15T19:54:35.194Z,74.70
2018-03-15T19:57:38.678Z,75.50
2018-03-15T20:00:42.094Z,76.20
2018-03-15T20:03:45.486Z,76.80
2018-03-15T20:06:48.910Z,77.20
2018-03-15T20:09:52.466Z,77.40
2018-03-15T20:12:56.855Z,78.00
2018-03-15T20:16:00.305Z,77.70
2018-03-15T20:19:20.494Z,78.00
2018-03-15T20:22:29.560Z,78.20
2018-03-15T20:25:33.828Z,78.80
2018-03-15T20:28:43.770Z,79.20
2018-03-15T20:31:47.250Z,78.90
2018-03-15T20:34:50.744Z,79.20
2018-03-15T20:37:54.188Z,79.20
2018-03-15T20:41:03.879Z,79.60
2018-03-15T20:44:07.352Z,79.40
2018-03-15T20:47:17.199Z,80.20
2018-03-15T20:50:21.403Z,80.50
2018-03-15T20:53:24.812Z,80.20
2018-03-15T20:56:28.260Z,80.30
2018-03-15T20:59:31.857Z,80.60
2018-03-15T21:02:35.304Z,80.90
2018-03-15T21:05:38.792Z,80.70
2018-03-15T21:08:42.264Z,81.10
2018-03-15T21:11:46.449Z,81.70
2018-03-15T21:14:49.909Z,81.30
2018-03-15T21:17:53.479Z,81.60
2018-03-15T21:20:56.872Z,81.70
2018-03-15T21:24:00.260Z,81.70
2018-03-15T21:27:04.591Z,82.50
2018-03-15T21:30:07.929Z,82.10
2018-03-15T21:33:11.362Z,82.50
2018-03-15T21:36:14.889Z,82.80
2018-03-15T21:39:18.361Z,83.30
2018-03-15T21:42:21.855Z,82.90
2018-03-15T21:45:25.258Z,82.90
2018-03-15T21:48:28.697Z,83.10
2018-03-15T21:51:32.160Z,83.40
2018-03-15T21:54:35.874Z,83.70
2018-03-15T21:57:39.282Z,83.70
2018-03-15T22:00:42.741Z,83.70
2018-03-15T22:03:46.296Z,83.90
2018-03-15T22:06:49.820Z,84.00
2018-03-15T22:09:53.234Z,83.90
2018-03-15T22:12:56.764Z,84.00
2018-03-15T22:16:00.191Z,84.10
2018-03-15T22:19:03.752Z,84.20
2018-03-15T22:22:07.185Z,84.40
2018-03-15T22:25:11.104Z,84.40
2018-03-15T22:28:14.609Z,84.30
2018-03-15T22:31:18.048Z,84.40
2018-03-15T22:34:21.410Z,84.70
2018-03-15T22:37:24.855Z,84.90
2018-03-15T22:40:28.285Z,84.80
2018-03-15T22:43:31.784Z,84.90
2018-03-15T22:46:35.207Z,85.20
2018-03-15T22:49:38.825Z,85.20
2018-03-15T22:52:42.199Z,84.90
2018-03-15T22:55:45.765Z,84.90
2018-03-15T22:58:49.937Z,86.00
2018-03-15T23:01:53.325Z,84.80
2018-03-15T23:04:56.695Z,85.00
2018-03-15T23:08:00.117Z,85.20
2018-03-15T23:11:03.498Z,85.10
2018-03-15T23:14:07.009Z,84.80
2018-03-15T23:17:10.418Z,84.70
2018-03-15T23:20:13.952Z,85.00
2018-03-15T23:23:18.137Z,85.60
2018-03-15T23:26:21.585Z,85.30
2018-03-15T23:29:25.379Z,85.50
2018-03-15T23:32:29.643Z,85.70
2018-03-15T23:35:33.824Z,85.60
2018-03-15T23:38:37.370Z,85.40
2018-03-15T23:41:40.892Z,85.80
2018-03-15T23:44:44.403Z,85.40
2018-03-15T23:47:47.779Z,85.60
2018-03-15T23:50:51.161Z,85.60
2018-03-15T23:53:54.554Z,85.90
2018-03-15T23:56:58.696Z,86.10
